sensor_id;sensor_type;location;lat;lon;timestamp;pressure;altitude;pressure_sealevel;temperature;humidity
28310;BME280;15571;50.974;13.936;2023-12-07T00:02:32;100281.63;;;4.32;nan
28310;BME280;15571;50.974;13.936;2023-12-07T00:05:38;100282.44;;;4.29;nan
28310;BME280;15571;50.974;13.936;2023-12-07T00:08:40;100282.44;;;4.29;nan
28310;BME280;15571;50.974;13.936;2023-12-07T00:11:42;100285.06;;;4.31;nan
28310;BME280;15571;50.974;13.936;2023-12-07T00:14:46;100283.31;;;4.30;nan
28310;BME280;15571;50.974;13.936;2023-12-07T00:21:26;100285.06;;;4.31;nan
28310;BME280;15571;50.974;13.936;2023-12-07T00:24:28;100292.69;;;4.25;nan
28310;BME280;15571;50.974;13.936;2023-12-07T00:27:34;100291.03;;;4.27;nan
28310;BME280;15571;50.974;13.936;2023-12-07T00:30:38;100296.22;;;4.27;nan
28310;BME280;15571;50.974;13.936;2023-12-07T00:33:42;100293.69;;;4.30;nan
28310;BME280;15571;50.974;13.936;2023-12-07T00:36:50;100290.25;;;4.31;nan
28310;BME280;15571;50.974;13.936;2023-12-07T00:39:52;100290.28;;;4.32;nan
28310;BME280;15571;50.974;13.936;2023-12-07T00:42:57;100288.66;;;4.38;nan
28310;BME280;15571;50.974;13.936;2023-12-07T00:45:59;100294.66;;;4.35;nan
28310;BME280;15571;50.974;13.936;2023-12-07T00:49:02;100291.03;;;4.27;nan
28310;BME280;15571;50.974;13.936;2023-12-07T00:52:06;100286.75;;;4.29;nan
28310;BME280;15571;50.974;13.936;2023-12-07T00:55:08;100290.25;;;4.31;nan
28310;BME280;15571;50.974;13.936;2023-12-07T00:58:10;100287.63;;;4.29;nan
28310;BME280;15571;50.974;13.936;2023-12-07T01:01:14;100290.19;;;4.28;nan
28310;BME280;15571;50.974;13.936;2023-12-07T01:04:16;100304.19;;;4.38;nan
28310;BME280;15571;50.974;13.936;2023-12-07T01:07:20;100304.25;;;4.39;nan
28310;BME280;15571;50.974;13.936;2023-12-07T01:10:22;100307.59;;;4.35;nan
28310;BME280;15571;50.974;13.936;2023-12-07T01:13:24;100307.06;;;4.50;nan
28310;BME280;15571;50.974;13.936;2023-12-07T01:16:25;100302.63;;;4.44;nan
28310;BME280;15571;50.974;13.936;2023-12-07T01:19:27;100307.72;;;4.41;nan
28310;BME280;15571;50.974;13.936;2023-12-07T01:22:30;100310.22;;;4.36;nan
28310;BME280;15571;50.974;13.936;2023-12-07T01:25:33;100315.38;;;4.35;nan
28310;BME280;15571;50.974;13.936;2023-12-07T01:28:34;100315.47;;;4.38;nan
28310;BME280;15571;50.974;13.936;2023-12-07T01:31:36;100314.53;;;4.36;nan
28310;BME280;15571;50.974;13.936;2023-12-07T01:34:38;100314.63;;;4.39;nan
28310;BME280;15571;50.974;13.936;2023-12-07T01:37:50;100327.59;;;4.41;nan
28310;BME280;15571;50.974;13.936;2023-12-07T01:40:52;100329.44;;;4.45;nan
28310;BME280;15571;50.974;13.936;2023-12-07T01:43:59;100330.22;;;4.42;nan
28310;BME280;15571;50.974;13.936;2023-12-07T01:47:01;100335.34;;;4.39;nan
28310;BME280;15571;50.974;13.936;2023-12-07T01:50:09;100334.50;;;4.40;nan
28310;BME280;15571;50.974;13.936;2023-12-07T01:53:13;100338.88;;;4.43;nan
28310;BME280;15571;50.974;13.936;2023-12-07T01:56:15;100335.47;;;4.45;nan
28310;BME280;15571;50.974;13.936;2023-12-07T01:59:17;100342.34;;;4.43;nan
28310;BME280;15571;50.974;13.936;2023-12-07T02:02:20;100347.59;;;4.46;nan
28310;BME280;15571;50.974;13.936;2023-12-07T02:05:22;100342.41;;;4.46;nan
28310;BME280;15571;50.974;13.936;2023-12-07T02:08:26;100342.50;;;4.49;nan
28310;BME280;15571;50.974;13.936;2023-12-07T02:11:28;100344.19;;;4.49;nan
28310;BME280;15571;50.974;13.936;2023-12-07T02:14:29;100347.66;;;4.49;nan
28310;BME280;15571;50.974;13.936;2023-12-07T02:17:33;100351.09;;;4.48;nan
28310;BME280;15571;50.974;13.936;2023-12-07T02:20:37;100354.53;;;4.47;nan
28310;BME280;15571;50.974;13.936;2023-12-07T02:23:42;100352.81;;;4.48;nan
28310;BME280;15571;50.974;13.936;2023-12-07T02:26:51;100351.94;;;4.47;nan
28310;BME280;15571;50.974;13.936;2023-12-07T02:29:53;100356.22;;;4.47;nan
28310;BME280;15571;50.974;13.936;2023-12-07T02:32:55;100358.06;;;4.51;nan
28310;BME280;15571;50.974;13.936;2023-12-07T02:35:57;100360.63;;;4.49;nan
28310;BME280;15571;50.974;13.936;2023-12-07T02:39:00;100358.16;;;4.56;nan
28310;BME280;15571;50.974;13.936;2023-12-07T02:42:05;100360.56;;;4.48;nan
28310;BME280;15571;50.974;13.936;2023-12-07T02:45:08;100370.00;;;4.44;nan
28310;BME280;15571;50.974;13.936;2023-12-07T02:48:10;100370.81;;;4.40;nan
28310;BME280;15571;50.974;13.936;2023-12-07T02:51:12;100366.66;;;4.48;nan
28310;BME280;15571;50.974;13.936;2023-12-07T02:54:14;100371.97;;;4.55;nan
28310;BME280;15571;50.974;13.936;2023-12-07T02:57:17;100369.25;;;4.48;nan
28310;BME280;15571;50.974;13.936;2023-12-07T03:00:19;100376.31;;;4.57;nan
28310;BME280;15571;50.974;13.936;2023-12-07T03:03:22;100378.78;;;4.49;nan
28310;BME280;15571;50.974;13.936;2023-12-07T03:06:24;100376.81;;;4.39;nan
28310;BME280;15571;50.974;13.936;2023-12-07T03:09:26;100382.03;;;4.41;nan
28310;BME280;15571;50.974;13.936;2023-12-07T03:12:29;100382.00;;;4.39;nan
28310;BME280;15571;50.974;13.936;2023-12-07T03:15:31;100385.56;;;4.44;nan
28310;BME280;15571;50.974;13.936;2023-12-07T03:18:33;100386.41;;;4.43;nan
28310;BME280;15571;50.974;13.936;2023-12-07T03:21:38;100394.19;;;4.43;nan
28310;BME280;15571;50.974;13.936;2023-12-07T03:24:45;100393.25;;;4.40;nan
28310;BME280;15571;50.974;13.936;2023-12-07T03:27:50;100399.34;;;4.43;nan
28310;BME280;15571;50.974;13.936;2023-12-07T03:30:51;100398.53;;;4.44;nan
28310;BME280;15571;50.974;13.936;2023-12-07T03:33:53;100401.94;;;4.43;nan
28310;BME280;15571;50.974;13.936;2023-12-07T03:36:57;100401.28;;;4.50;nan
28310;BME280;15571;50.974;13.936;2023-12-07T03:40:02;100391.63;;;4.45;nan
28310;BME280;15571;50.974;13.936;2023-12-07T03:43:07;100398.78;;;4.55;nan
28310;BME280;15571;50.974;13.936;2023-12-07T03:46:12;100390.00;;;4.50;nan
28310;BME280;15571;50.974;13.936;2023-12-07T03:49:14;100392.63;;;4.51;nan
28310;BME280;15571;50.974;13.936;2023-12-07T03:52:16;100394.25;;;4.46;nan
28310;BME280;15571;50.974;13.936;2023-12-07T03:55:19;100402.94;;;4.48;nan
28310;BME280;15571;50.974;13.936;2023-12-07T03:58:22;100400.31;;;4.47;nan
28310;BME280;15571;50.974;13.936;2023-12-07T04:01:24;100398.59;;;4.47;nan
28310;BME280;15571;50.974;13.936;2023-12-07T04:04:31;100402.13;;;4.51;nan
28310;BME280;15571;50.974;13.936;2023-12-07T04:07:33;100403.78;;;4.47;nan
28310;BME280;15571;50.974;13.936;2023-12-07T04:10:35;100397.72;;;4.47;nan
28310;BME280;15571;50.974;13.936;2023-12-07T04:13:38;100401.22;;;4.49;nan
28310;BME280;15571;50.974;13.936;2023-12-07T04:16:41;100411.47;;;4.43;nan
28310;BME280;15571;50.974;13.936;2023-12-07T04:19:43;100407.22;;;4.46;nan
28310;BME280;15571;50.974;13.936;2023-12-07T04:22:44;100409.09;;;4.54;nan
28310;BME280;15571;50.974;13.936;2023-12-07T04:25:47;100413.22;;;4.44;nan
28310;BME280;15571;50.974;13.936;2023-12-07T04:28:50;100421.84;;;4.44;nan
28310;BME280;15571;50.974;13.936;2023-12-07T04:31:52;100427.03;;;4.44;nan
28310;BME280;15571;50.974;13.936;2023-12-07T04:34:54;100437.31;;;4.41;nan
28310;BME280;15571;50.974;13.936;2023-12-07T04:37:56;100437.28;;;4.38;nan
28310;BME280;15571;50.974;13.936;2023-12-07T04:40:58;100435.59;;;4.40;nan
28310;BME280;15571;50.974;13.936;2023-12-07T04:44:01;100447.69;;;4.41;nan
28310;BME280;15571;50.974;13.936;2023-12-07T04:47:04;100440.94;;;4.48;nan
28310;BME280;15571;50.974;13.936;2023-12-07T04:50:08;100440.09;;;4.49;nan
28310;BME280;15571;50.974;13.936;2023-12-07T04:53:11;100447.84;;;4.47;nan
28310;BME280;15571;50.974;13.936;2023-12-07T04:56:13;100447.78;;;4.44;nan
28310;BME280;15571;50.974;13.936;2023-12-07T04:59:19;100445.28;;;4.49;nan
28310;BME280;15571;50.974;13.936;2023-12-07T05:02:21;100453.97;;;4.51;nan
28310;BME280;15571;50.974;13.936;2023-12-07T05:05:26;100447.84;;;4.47;nan
28310;BME280;15571;50.974;13.936;2023-12-07T05:08:28;100450.47;;;4.49;nan
28310;BME280;15571;50.974;13.936;2023-12-07T05:11:32;100449.59;;;4.48;nan
28310;BME280;15571;50.974;13.936;2023-12-07T05:14:37;100450.44;;;4.47;nan
28310;BME280;15571;50.974;13.936;2023-12-07T05:17:39;100457.38;;;4.48;nan
28310;BME280;15571;50.974;13.936;2023-12-07T05:20:46;100450.53;;;4.50;nan
28310;BME280;15571;50.974;13.936;2023-12-07T05:23:51;100463.41;;;4.47;nan
28310;BME280;15571;50.974;13.936;2023-12-07T05:26:53;100459.97;;;4.48;nan
28310;BME280;15571;50.974;13.936;2023-12-07T05:30:00;100458.31;;;4.52;nan
28310;BME280;15571;50.974;13.936;2023-12-07T05:33:02;100460.91;;;4.52;nan
28310;BME280;15571;50.974;13.936;2023-12-07T05:36:07;100463.50;;;4.50;nan
28310;BME280;15571;50.974;13.936;2023-12-07T05:39:09;100468.81;;;4.57;nan
28310;BME280;15571;50.974;13.936;2023-12-07T05:42:15;100477.41;;;4.56;nan
28310;BME280;15571;50.974;13.936;2023-12-07T05:45:21;100475.59;;;4.51;nan
28310;BME280;15571;50.974;13.936;2023-12-07T05:48:26;100481.56;;;4.49;nan
28310;BME280;15571;50.974;13.936;2023-12-07T05:51:28;100482.50;;;4.51;nan
28310;BME280;15571;50.974;13.936;2023-12-07T05:54:30;100482.59;;;4.56;nan
28310;BME280;15571;50.974;13.936;2023-12-07T05:57:32;100482.53;;;4.52;nan
28310;BME280;15571;50.974;13.936;2023-12-07T06:00:35;100481.69;;;4.54;nan
28310;BME280;15571;50.974;13.936;2023-12-07T06:03:38;100488.59;;;4.53;nan
28310;BME280;15571;50.974;13.936;2023-12-07T06:06:40;100480.03;;;4.57;nan
28310;BME280;15571;50.974;13.936;2023-12-07T06:09:42;100479.16;;;4.55;nan
28310;BME280;15571;50.974;13.936;2023-12-07T06:12:44;100479.25;;;4.60;nan
28310;BME280;15571;50.974;13.936;2023-12-07T06:15:47;100486.13;;;4.58;nan
28310;BME280;15571;50.974;13.936;2023-12-07T06:18:52;100485.31;;;4.62;nan
28310;BME280;15571;50.974;13.936;2023-12-07T06:21:56;100486.81;;;4.50;nan
28310;BME280;15571;50.974;13.936;2023-12-07T06:24:59;100489.41;;;4.50;nan
28310;BME280;15571;50.974;13.936;2023-12-07T06:28:01;100494.66;;;4.54;nan
28310;BME280;15571;50.974;13.936;2023-12-07T06:31:08;100502.31;;;4.49;nan
28310;BME280;15571;50.974;13.936;2023-12-07T06:34:10;100498.88;;;4.50;nan
28310;BME280;15571;50.974;13.936;2023-12-07T06:37:12;100501.66;;;4.58;nan
28310;BME280;15571;50.974;13.936;2023-12-07T06:40:14;100509.56;;;4.62;nan
28310;BME280;15571;50.974;13.936;2023-12-07T06:43:16;100509.66;;;4.67;nan
28310;BME280;15571;50.974;13.936;2023-12-07T06:46:23;100506.91;;;4.61;nan
28310;BME280;15571;50.974;13.936;2023-12-07T06:49:25;100518.16;;;4.60;nan
28310;BME280;15571;50.974;13.936;2023-12-07T06:52:26;100518.19;;;4.63;nan
28310;BME280;15571;50.974;13.936;2023-12-07T06:55:28;100504.41;;;4.65;nan
28310;BME280;15571;50.974;13.936;2023-12-07T06:58:32;100511.16;;;4.57;nan
28310;BME280;15571;50.974;13.936;2023-12-07T07:01:36;100517.94;;;4.50;nan
28310;BME280;15571;50.974;13.936;2023-12-07T07:04:38;100511.81;;;4.48;nan
28310;BME280;15571;50.974;13.936;2023-12-07T07:07:40;100525.63;;;4.47;nan
28310;BME280;15571;50.974;13.936;2023-12-07T07:10:43;100525.66;;;4.49;nan
28310;BME280;15571;50.974;13.936;2023-12-07T07:13:45;100522.31;;;4.53;nan
28310;BME280;15571;50.974;13.936;2023-12-07T07:16:48;100526.56;;;4.51;nan
28310;BME280;15571;50.974;13.936;2023-12-07T07:19:53;100526.66;;;4.54;nan
28310;BME280;15571;50.974;13.936;2023-12-07T07:22:57;100529.34;;;4.59;nan
28310;BME280;15571;50.974;13.936;2023-12-07T07:25:59;100533.84;;;4.66;nan
28310;BME280;15571;50.974;13.936;2023-12-07T07:29:02;100532.91;;;4.64;nan
28310;BME280;15571;50.974;13.936;2023-12-07T07:32:06;100531.53;;;4.78;nan
28310;BME280;15571;50.974;13.936;2023-12-07T07:35:08;100525.53;;;4.81;nan
28310;BME280;15571;50.974;13.936;2023-12-07T07:38:14;100525.41;;;4.75;nan
28310;BME280;15571;50.974;13.936;2023-12-07T07:41:16;100526.97;;;4.68;nan
28310;BME280;15571;50.974;13.936;2023-12-07T07:44:18;100526.06;;;4.66;nan
28310;BME280;15571;50.974;13.936;2023-12-07T07:47:21;100528.75;;;4.71;nan
28310;BME280;15571;50.974;13.936;2023-12-07T07:50:23;100531.66;;;4.85;nan
28310;BME280;15571;50.974;13.936;2023-12-07T07:53:25;100533.31;;;4.79;nan
28310;BME280;15571;50.974;13.936;2023-12-07T07:56:27;100539.38;;;4.81;nan
28310;BME280;15571;50.974;13.936;2023-12-07T07:59:29;100539.16;;;4.72;nan
28310;BME280;15571;50.974;13.936;2023-12-07T08:02:33;100536.66;;;4.77;nan
28310;BME280;15571;50.974;13.936;2023-12-07T08:05:35;100541.91;;;4.78;nan
28310;BME280;15571;50.974;13.936;2023-12-07T08:08:37;100540.16;;;4.77;nan
28310;BME280;15571;50.974;13.936;2023-12-07T08:11:39;100542.78;;;4.79;nan
28310;BME280;15571;50.974;13.936;2023-12-07T08:14:41;100541.94;;;4.80;nan
28310;BME280;15571;50.974;13.936;2023-12-07T08:17:48;100534.19;;;4.81;nan
28310;BME280;15571;50.974;13.936;2023-12-07T08:20:51;100537.81;;;4.88;nan
28310;BME280;15571;50.974;13.936;2023-12-07T08:23:53;100537.81;;;4.88;nan
28310;BME280;15571;50.974;13.936;2023-12-07T08:26:55;100545.91;;;5.02;nan
28310;BME280;15571;50.974;13.936;2023-12-07T08:29:57;100538.16;;;5.04;nan
28310;BME280;15571;50.974;13.936;2023-12-07T08:33:08;100544.00;;;4.95;nan
28310;BME280;15571;50.974;13.936;2023-12-07T08:36:10;100548.25;;;4.91;nan
28310;BME280;15571;50.974;13.936;2023-12-07T08:39:17;100546.47;;;4.89;nan
28310;BME280;15571;50.974;13.936;2023-12-07T08:42:19;100551.59;;;4.87;nan
28310;BME280;15571;50.974;13.936;2023-12-07T08:45:30;100549.19;;;4.95;nan
28310;BME280;15571;50.974;13.936;2023-12-07T08:48:33;100559.50;;;4.92;nan
28310;BME280;15571;50.974;13.936;2023-12-07T08:51:37;100560.53;;;4.98;nan
28310;BME280;15571;50.974;13.936;2023-12-07T08:54:39;100555.22;;;4.94;nan
28310;BME280;15571;50.974;13.936;2023-12-07T08:57:41;100557.78;;;4.92;nan
28310;BME280;15571;50.974;13.936;2023-12-07T09:00:46;100564.63;;;4.89;nan
28310;BME280;15571;50.974;13.936;2023-12-07T09:03:52;100561.31;;;4.94;nan
28310;BME280;15571;50.974;13.936;2023-12-07T09:06:56;100573.31;;;4.91;nan
28310;BME280;15571;50.974;13.936;2023-12-07T09:09:58;100577.75;;;4.96;nan
28310;BME280;15571;50.974;13.936;2023-12-07T09:13:01;100579.50;;;4.96;nan
28310;BME280;15571;50.974;13.936;2023-12-07T09:16:03;100580.41;;;4.98;nan
28310;BME280;15571;50.974;13.936;2023-12-07T09:19:06;100581.34;;;5.02;nan
28310;BME280;15571;50.974;13.936;2023-12-07T09:22:09;100581.31;;;5.00;nan
28310;BME280;15571;50.974;13.936;2023-12-07T09:25:15;100587.41;;;5.02;nan
28310;BME280;15571;50.974;13.936;2023-12-07T09:28:17;100584.81;;;5.02;nan
28310;BME280;15571;50.974;13.936;2023-12-07T09:31:22;100591.78;;;5.05;nan
28310;BME280;15571;50.974;13.936;2023-12-07T09:34:25;100590.16;;;5.08;nan
28310;BME280;15571;50.974;13.936;2023-12-07T09:37:28;100588.53;;;5.13;nan
28310;BME280;15571;50.974;13.936;2023-12-07T09:40:30;100582.41;;;5.10;nan
28310;BME280;15571;50.974;13.936;2023-12-07T09:43:35;100586.88;;;5.17;nan
28310;BME280;15571;50.974;13.936;2023-12-07T09:46:37;100586.03;;;5.18;nan
28310;BME280;15571;50.974;13.936;2023-12-07T09:49:40;100588.72;;;5.21;nan
28310;BME280;15571;50.974;13.936;2023-12-07T09:52:42;100587.78;;;5.19;nan
28310;BME280;15571;50.974;13.936;2023-12-07T09:55:47;100587.03;;;5.23;nan
28310;BME280;15571;50.974;13.936;2023-12-07T09:58:49;100580.00;;;5.18;nan
28310;BME280;15571;50.974;13.936;2023-12-07T10:01:51;100586.13;;;5.21;nan
28310;BME280;15571;50.974;13.936;2023-12-07T10:05:07;100584.47;;;5.25;nan
28310;BME280;15571;50.974;13.936;2023-12-07T10:08:11;100587.16;;;5.29;nan
28310;BME280;15571;50.974;13.936;2023-12-07T10:11:26;100584.66;;;5.34;nan
28310;BME280;15571;50.974;13.936;2023-12-07T10:14:28;100583.69;;;5.29;nan
28310;BME280;15571;50.974;13.936;2023-12-07T10:17:42;100578.38;;;5.24;nan
28310;BME280;15571;50.974;13.936;2023-12-07T10:20:46;100582.84;;;5.30;nan
28310;BME280;15571;50.974;13.936;2023-12-07T10:23:48;100577.84;;;5.39;nan
28310;BME280;15571;50.974;13.936;2023-12-07T10:26:52;100581.94;;;5.28;nan
28310;BME280;15571;50.974;13.936;2023-12-07T10:29:54;100572.31;;;5.24;nan
28310;BME280;15571;50.974;13.936;2023-12-07T10:33:00;100572.31;;;5.24;nan
28310;BME280;15571;50.974;13.936;2023-12-07T10:36:07;100568.78;;;5.19;nan
28310;BME280;15571;50.974;13.936;2023-12-07T10:39:09;100565.19;;;5.13;nan
28310;BME280;15571;50.974;13.936;2023-12-07T10:42:14;100566.16;;;5.19;nan
28310;BME280;15571;50.974;13.936;2023-12-07T10:45:17;100562.97;;;5.30;nan
28310;BME280;15571;50.974;13.936;2023-12-07T10:48:25;100561.81;;;5.18;nan
28310;BME280;15571;50.974;13.936;2023-12-07T10:51:31;100559.03;;;5.08;nan
28310;BME280;15571;50.974;13.936;2023-12-07T10:54:41;100563.38;;;5.09;nan
28310;BME280;15571;50.974;13.936;2023-12-07T10:57:45;100565.09;;;5.10;nan
28310;BME280;15571;50.974;13.936;2023-12-07T11:00:48;100565.97;;;5.09;nan
28310;BME280;15571;50.974;13.936;2023-12-07T11:03:50;100572.88;;;5.09;nan
28310;BME280;15571;50.974;13.936;2023-12-07T11:06:54;100576.41;;;5.12;nan
28310;BME280;15571;50.974;13.936;2023-12-07T11:10:00;100574.69;;;5.13;nan
28310;BME280;15571;50.974;13.936;2023-12-07T11:13:06;100577.31;;;5.14;nan
28310;BME280;15571;50.974;13.936;2023-12-07T11:16:10;100573.88;;;5.16;nan
28310;BME280;15571;50.974;13.936;2023-12-07T11:22:30;100575.56;;;5.13;nan
28310;BME280;15571;50.974;13.936;2023-12-07T11:25:33;100570.50;;;5.20;nan
28310;BME280;15571;50.974;13.936;2023-12-07T11:28:35;100569.66;;;5.21;nan
28310;BME280;15571;50.974;13.936;2023-12-07T11:31:39;100570.50;;;5.20;nan
28310;BME280;15571;50.974;13.936;2023-12-07T11:34:41;100576.47;;;5.16;nan
28310;BME280;15571;50.974;13.936;2023-12-07T11:41:14;100560.34;;;5.29;nan
28310;BME280;15571;50.974;13.936;2023-12-07T11:44:17;100563.69;;;5.25;nan
28310;BME280;15571;50.974;13.936;2023-12-07T11:47:19;100564.50;;;5.22;nan
28310;BME280;15571;50.974;13.936;2023-12-07T11:50:24;100561.91;;;5.22;nan
28310;BME280;15571;50.974;13.936;2023-12-07T11:53:29;100562.81;;;5.24;nan
28310;BME280;15571;50.974;13.936;2023-12-07T11:56:32;100565.53;;;5.29;nan
28310;BME280;15571;50.974;13.936;2023-12-07T11:59:36;100563.78;;;5.28;nan
28310;BME280;15571;50.974;13.936;2023-12-07T12:02:38;100557.63;;;5.24;nan
28310;BME280;15571;50.974;13.936;2023-12-07T12:05:48;100566.28;;;5.23;nan
28310;BME280;15571;50.974;13.936;2023-12-07T12:08:53;100565.31;;;5.20;nan
28310;BME280;15571;50.974;13.936;2023-12-07T12:11:58;100561.94;;;5.24;nan
28310;BME280;15571;50.974;13.936;2023-12-07T12:15:01;100561.13;;;5.26;nan
28310;BME280;15571;50.974;13.936;2023-12-07T12:18:04;100545.66;;;5.31;nan
28310;BME280;15571;50.974;13.936;2023-12-07T12:21:07;100550.00;;;5.32;nan
28310;BME280;15571;50.974;13.936;2023-12-07T12:24:10;100550.91;;;5.33;nan
28310;BME280;15571;50.974;13.936;2023-12-07T12:27:14;100560.38;;;5.32;nan
28310;BME280;15571;50.974;13.936;2023-12-07T12:30:16;100557.03;;;5.36;nan
28310;BME280;15571;50.974;13.936;2023-12-07T12:33:19;100555.25;;;5.34;nan
28310;BME280;15571;50.974;13.936;2023-12-07T12:36:21;100550.16;;;5.38;nan
28310;BME280;15571;50.974;13.936;2023-12-07T12:39:26;100551.88;;;5.39;nan
28310;BME280;15571;50.974;13.936;2023-12-07T12:42:32;100544.09;;;5.39;nan
28310;BME280;15571;50.974;13.936;2023-12-07T12:45:34;100550.16;;;5.38;nan
28310;BME280;15571;50.974;13.936;2023-12-07T12:48:36;100551.09;;;5.42;nan
28310;BME280;15571;50.974;13.936;2023-12-07T12:51:38;100543.25;;;5.40;nan
28310;BME280;15571;50.974;13.936;2023-12-07T12:54:42;100551.94;;;5.42;nan
28310;BME280;15571;50.974;13.936;2023-12-07T12:57:45;100548.50;;;5.43;nan
28310;BME280;15571;50.974;13.936;2023-12-07T13:00:48;100552.84;;;5.44;nan
28310;BME280;15571;50.974;13.936;2023-12-07T13:03:50;100547.66;;;5.43;nan
28310;BME280;15571;50.974;13.936;2023-12-07T13:06:52;100547.66;;;5.43;nan
28310;BME280;15571;50.974;13.936;2023-12-07T13:09:54;100549.38;;;5.44;nan
28310;BME280;15571;50.974;13.936;2023-12-07T13:12:57;100540.72;;;5.43;nan
28310;BME280;15571;50.974;13.936;2023-12-07T13:15:59;100546.75;;;5.42;nan
28310;BME280;15571;50.974;13.936;2023-12-07T13:19:01;100545.16;;;5.48;nan
28310;BME280;15571;50.974;13.936;2023-12-07T13:22:03;100539.97;;;5.49;nan
28310;BME280;15571;50.974;13.936;2023-12-07T13:25:08;100545.19;;;5.51;nan
28310;BME280;15571;50.974;13.936;2023-12-07T13:28:12;100546.03;;;5.50;nan
28310;BME280;15571;50.974;13.936;2023-12-07T13:31:14;100539.94;;;5.48;nan
28310;BME280;15571;50.974;13.936;2023-12-07T13:34:18;100543.38;;;5.47;nan
28310;BME280;15571;50.974;13.936;2023-12-07T13:37:24;100546.88;;;5.49;nan
28310;BME280;15571;50.974;13.936;2023-12-07T13:40:31;100539.94;;;5.48;nan
28310;BME280;15571;50.974;13.936;2023-12-07T13:43:37;100549.47;;;5.49;nan
28310;BME280;15571;50.974;13.936;2023-12-07T13:46:39;100539.91;;;5.46;nan
28310;BME280;15571;50.974;13.936;2023-12-07T13:49:43;100552.03;;;5.45;nan
28310;BME280;15571;50.974;13.936;2023-12-07T13:52:45;100548.50;;;5.43;nan
28310;BME280;15571;50.974;13.936;2023-12-07T13:55:47;100544.19;;;5.44;nan
28310;BME280;15571;50.974;13.936;2023-12-07T13:58:53;100558.81;;;5.40;nan
28310;BME280;15571;50.974;13.936;2023-12-07T14:01:55;100564.00;;;5.40;nan
28310;BME280;15571;50.974;13.936;2023-12-07T14:04:57;100563.19;;;5.41;nan
28310;BME280;15571;50.974;13.936;2023-12-07T14:07:59;100558.81;;;5.40;nan
28310;BME280;15571;50.974;13.936;2023-12-07T14:11:01;100564.09;;;5.43;nan
28310;BME280;15571;50.974;13.936;2023-12-07T14:14:05;100566.75;;;5.47;nan
28310;BME280;15571;50.974;13.936;2023-12-07T14:17:07;100564.09;;;5.43;nan
28310;BME280;15571;50.974;13.936;2023-12-07T14:20:10;100563.19;;;5.41;nan
28310;BME280;15571;50.974;13.936;2023-12-07T14:23:13;100565.78;;;5.41;nan
28310;BME280;15571;50.974;13.936;2023-12-07T14:26:16;100566.66;;;5.42;nan
28310;BME280;15571;50.974;13.936;2023-12-07T14:29:19;100559.72;;;5.41;nan
28310;BME280;15571;50.974;13.936;2023-12-07T14:32:21;100569.22;;;5.40;nan
28310;BME280;15571;50.974;13.936;2023-12-07T14:35:26;100564.00;;;5.40;nan
28310;BME280;15571;50.974;13.936;2023-12-07T14:38:28;100565.78;;;5.41;nan
28310;BME280;15571;50.974;13.936;2023-12-07T14:41:30;100554.44;;;5.36;nan
28310;BME280;15571;50.974;13.936;2023-12-07T14:44:33;100560.53;;;5.38;nan
28310;BME280;15571;50.974;13.936;2023-12-07T14:47:35;100561.38;;;5.37;nan
28310;BME280;15571;50.974;13.936;2023-12-07T14:50:37;100558.69;;;5.34;nan
28310;BME280;15571;50.974;13.936;2023-12-07T14:53:39;100558.59;;;5.28;nan
28310;BME280;15571;50.974;13.936;2023-12-07T14:56:44;100556.00;;;5.29;nan
28310;BME280;15571;50.974;13.936;2023-12-07T14:59:47;100554.16;;;5.24;nan
28310;BME280;15571;50.974;13.936;2023-12-07T15:02:50;100557.69;;;5.27;nan
28310;BME280;15571;50.974;13.936;2023-12-07T15:05:52;100552.41;;;5.23;nan
28310;BME280;15571;50.974;13.936;2023-12-07T15:08:55;100553.25;;;5.22;nan
28310;BME280;15571;50.974;13.936;2023-12-07T15:11:57;100551.56;;;5.24;nan
28310;BME280;15571;50.974;13.936;2023-12-07T15:15:01;100558.50;;;5.25;nan
28310;BME280;15571;50.974;13.936;2023-12-07T15:18:06;100563.63;;;5.22;nan
28310;BME280;15571;50.974;13.936;2023-12-07T15:21:08;100567.91;;;5.20;nan
28310;BME280;15571;50.974;13.936;2023-12-07T15:24:10;100558.38;;;5.19;nan
28310;BME280;15571;50.974;13.936;2023-12-07T15:27:12;100560.94;;;5.17;nan
28310;BME280;15571;50.974;13.936;2023-12-07T15:30:16;100562.59;;;5.13;nan
28310;BME280;15571;50.974;13.936;2023-12-07T15:33:18;100565.19;;;5.13;nan
28310;BME280;15571;50.974;13.936;2023-12-07T15:36:23;100569.53;;;5.14;nan
28310;BME280;15571;50.974;13.936;2023-12-07T15:39:25;100561.75;;;5.14;nan
28310;BME280;15571;50.974;13.936;2023-12-07T15:42:31;100558.22;;;5.12;nan
28310;BME280;15571;50.974;13.936;2023-12-07T15:45:34;100564.84;;;4.98;nan
28310;BME280;15571;50.974;13.936;2023-12-07T15:48:36;100563.41;;;5.11;nan
28310;BME280;15571;50.974;13.936;2023-12-07T15:51:38;100563.28;;;5.06;nan
28310;BME280;15571;50.974;13.936;2023-12-07T15:54:39;100572.69;;;5.01;nan
28310;BME280;15571;50.974;13.936;2023-12-07T15:57:44;100566.66;;;5.02;nan
28310;BME280;15571;50.974;13.936;2023-12-07T16:00:47;100565.78;;;5.02;nan
28310;BME280;15571;50.974;13.936;2023-12-07T16:03:50;100549.31;;;5.01;nan
28310;BME280;15571;50.974;13.936;2023-12-07T16:06:52;100551.09;;;5.02;nan
28310;BME280;15571;50.974;13.936;2023-12-07T16:09:54;100551.91;;;5.01;nan
28310;BME280;15571;50.974;13.936;2023-12-07T16:12:56;100541.53;;;5.01;nan
28310;BME280;15571;50.974;13.936;2023-12-07T16:15:59;100539.00;;;5.03;nan
28310;BME280;15571;50.974;13.936;2023-12-07T16:19:02;100542.47;;;5.03;nan
28310;BME280;15571;50.974;13.936;2023-12-07T16:22:04;100544.09;;;4.98;nan
28310;BME280;15571;50.974;13.936;2023-12-07T16:25:06;100544.28;;;5.07;nan
28310;BME280;15571;50.974;13.936;2023-12-07T16:28:10;100547.81;;;5.09;nan
28310;BME280;15571;50.974;13.936;2023-12-07T16:31:13;100548.38;;;4.97;nan
28310;BME280;15571;50.974;13.936;2023-12-07T16:34:15;100559.78;;;5.04;nan